Cooper City, FL

10:54 AM EST on February 09, 2016 (GMT -0500)
Rock Creek | | Change Station
CLOSE
Current Station
Personal Weather Station
Location: Hollywood, FL
Elevation: 7 ft
Nearby Weather Stations

Elev 7 ft 26.04 °N, 80.31 °W | Updated 1 second ago

Partly Cloudy
Partly Cloudy
59.5 °F
Feels Like 59.5 °F
N
3.0
Wind Variable Wind from WNW
Gusts 13.5 mph

Today
High -- | Low -- °F
--% Chance of Precip.
Yesterday
High -- | Low -- °F
Precip. -- in
Pressure 30.10 in
Visibility 10.0 miles
Clouds Clear
Dew Point 46 °F
Humidity 61%
Rainfall 0.00 in
Snow Depth Not available.
7:01 AM 6:10 PM
New Moon, 1% visible
METAR KOPF 091453Z 32014KT 10SM CLR 18/08 A3010 RMK AO2 SLP193 T01780078 51022
Pressure 30.10 in
Visibility 10.0 miles
Clouds Clear
Dew Point 46 °F
Humidity 61%
Rainfall 0.00 in
Snow Depth Not available.
7:01 AM 6:10 PM
New Moon, 1% visible
METAR KOPF 091453Z 32014KT 10SM CLR 18/08 A3010 RMK AO2 SLP193 T01780078 51022

10-Day Weather Forecast

Almanac

Astronomy

Feb. 09, 2016 Rise Set
Actual Time
Civil Twilight
Nautical Twilight
Astronomical Twilight
Moon
Length of Visible Light
Length of Day
Tomorrow will be .
, % of the Moon is Illuminated

Today's Extremes

State Highs State Lows

Community

WunderPhotos

Upload Photos

1,891,628 photos uploaded!

WunderBlog® & News

Nearby

Air Quality

  Air Quality AQ Index Pollutant
Not available.

Snow Depth

Station Depth Elevation

Earthquake Activity

City Distance Mag. Time & Date
Minimum magnitude displayed is 2.5.

Coastal Water Temperatures

Place Temperature

Stations

Nearby Weather Stations

Station Location Temp. Windchill Dew Point Humidity Wind Precip. Elev Updated Type
                   

Watches & Warnings

There are currently no watches in effect.